This is the latest recevied weather packets stored in our database for station/object GW1549. If no packets are shown the sender has not sent any weather packets the latest 10 day(s).
| Time | Temp. | Humidity | Pressure | Rain* | Wind** | Luminosity | Snow |
|---|---|---|---|---|---|---|---|
| 1777783725 | 0.56° C | 92% | 1013.2 hPa | 0 mm | - | - | - |
| 1777783362 | 0.56° C | 92% | 1013.2 hPa | 0 mm | - | - | - |
| 1777782283 | 1.11° C | 91% | 1012.8 hPa | 0 mm | - | - | - |
| 1777781903 | 1.11° C | 90% | 1012.8 hPa | 0 mm | - | - | - |
| 1777781183 | 1.11° C | 89% | 1012.8 hPa | 0 mm | - | - | - |
| 1777780492 | 1.67° C | 88% | 1012.8 hPa | 0 mm | - | - | - |
| 1777779736 | 1.67° C | 88% | 1012.5 hPa | 0 mm | - | - | - |
| 1777777224 | 3.33° C | 83% | 1012.8 hPa | 0 mm | - | - | - |
| 1777775778 | 3.89° C | 78% | 1012.5 hPa | 0 mm | - | - | - |
| 1777771814 | 5.56° C | 70% | 1012.1 hPa | 0 mm | - | - | - |
| 1777769323 | 6.67° C | 64% | 1011.5 hPa | 0 mm | - | - | - |
| 1777767495 | 8.33° C | 55% | 1011.1 hPa | 0 mm | - | - | - |
| 1777765721 | 9.44° C | 52% | 1011.1 hPa | 0 mm | - | - | - |
| 1777763532 | 10.56° C | 51% | 1010.4 hPa | 0 mm | - | - | - |
| 1777758851 | 12.22° C | 43% | 1010.1 hPa | 0 mm | - | - | - |
| 1777755634 | 12.22° C | 45% | 1009.8 hPa | 0 mm | - | - | - |
| 1777751654 | 12.78° C | 46% | 1010.4 hPa | 0 mm | - | - | - |
| 1777750969 | 12.78° C | 47% | 1010.4 hPa | 0 mm | - | - | - |
| 1777746280 | 11.67° C | 49% | 1010.4 hPa | 0 mm | - | - | - |
| 1777745574 | 12.22° C | 48% | 1010.4 hPa | 0 mm | - | - | - |
| 1777737984 | 11.67° C | 51% | 1011.5 hPa | 0 mm | - | - | - |
| 1777735839 | 10° C | 53% | 1011.8 hPa | 0 mm | - | - | - |
| 1777735453 | 10.56° C | 56% | 1011.8 hPa | 0 mm | - | - | - |
| 1777734042 | 10.56° C | 57% | 1011.8 hPa | 0 mm | - | - | - |
| 1777732610 | 10° C | 62% | 1011.5 hPa | 0 mm | - | - | - |
* Rain since midnight (hover to see other rain measurements)
** Current wind speed in m/s (hover to see current wind gust speed)